createdAt,value
2018-01-26T00:00:59.688Z,94.54
2018-01-26T00:02:02.154Z,94.52
2018-01-26T00:03:04.687Z,94.64
2018-01-26T00:04:07.150Z,94.74
2018-01-26T00:05:09.615Z,94.93
2018-01-26T00:06:12.080Z,94.89
2018-01-26T00:07:14.596Z,95.00
2018-01-26T00:08:17.181Z,95.08
2018-01-26T00:09:19.646Z,94.59
2018-01-26T00:10:22.129Z,93.90
2018-01-26T00:11:24.604Z,93.71
2018-01-26T00:12:27.085Z,93.74
2018-01-26T00:13:29.555Z,94.15
2018-01-26T00:14:32.022Z,94.21
2018-01-26T00:15:34.487Z,94.07
2018-01-26T00:16:37.021Z,94.14
2018-01-26T00:17:39.501Z,93.76
2018-01-26T00:18:41.974Z,93.69
2018-01-26T00:19:44.455Z,93.87
2018-01-26T00:20:46.918Z,94.23
2018-01-26T00:21:49.393Z,94.66
2018-01-26T00:22:51.858Z,94.83
2018-01-26T00:23:54.322Z,94.41
2018-01-26T00:24:56.801Z,94.20
2018-01-26T00:25:59.281Z,94.27
2018-01-26T00:27:01.758Z,94.43
2018-01-26T00:28:04.248Z,94.10
2018-01-26T00:29:06.733Z,93.83
2018-01-26T00:30:09.212Z,93.70
2018-01-26T00:31:11.674Z,93.56
2018-01-26T00:32:14.138Z,93.03
2018-01-26T00:33:16.620Z,93.09
2018-01-26T00:34:19.091Z,92.84
2018-01-26T00:35:21.555Z,92.95
2018-01-26T00:36:24.028Z,93.03
2018-01-26T00:37:26.513Z,92.69
2018-01-26T00:38:28.979Z,92.24
2018-01-26T00:39:31.443Z,92.07
2018-01-26T00:40:33.907Z,92.32
2018-01-26T00:41:36.370Z,92.92
2018-01-26T00:42:38.859Z,92.91
2018-01-26T00:43:41.341Z,93.12
2018-01-26T00:44:43.806Z,93.09
2018-01-26T00:45:46.289Z,92.92
2018-01-26T00:46:48.764Z,92.77
2018-01-26T00:47:51.248Z,92.62
2018-01-26T00:48:53.710Z,92.93
2018-01-26T00:49:56.188Z,93.29
2018-01-26T00:50:58.668Z,93.58
2018-01-26T00:52:01.134Z,93.68
2018-01-26T00:53:03.608Z,93.87
2018-01-26T00:54:06.094Z,93.65
2018-01-26T00:55:08.587Z,93.78
2018-01-26T00:56:11.068Z,93.94
2018-01-26T00:57:13.534Z,93.69
2018-01-26T00:58:16.009Z,93.48
2018-01-26T00:59:18.493Z,93.46
2018-01-26T01:00:20.969Z,93.78
2018-01-26T01:01:23.446Z,93.81
2018-01-26T01:02:25.916Z,93.99
2018-01-26T01:03:28.380Z,94.23
2018-01-26T01:04:30.846Z,93.62
2018-01-26T01:05:33.325Z,93.55
2018-01-26T01:06:35.802Z,93.84
2018-01-26T01:07:38.267Z,94.26
2018-01-26T01:08:40.741Z,94.35
2018-01-26T01:09:43.221Z,94.15
2018-01-26T01:10:45.708Z,94.18
2018-01-26T01:11:48.182Z,93.79
2018-01-26T01:12:50.646Z,93.63
2018-01-26T01:13:53.126Z,93.79
2018-01-26T01:14:55.596Z,93.77
2018-01-26T01:15:58.061Z,93.59
2018-01-26T01:17:00.549Z,93.78
2018-01-26T01:18:03.015Z,93.67
2018-01-26T01:19:05.488Z,94.21
2018-01-26T01:20:07.976Z,94.37
2018-01-26T01:21:10.439Z,94.48
2018-01-26T01:22:12.912Z,94.55
2018-01-26T01:23:15.383Z,93.69
2018-01-26T01:24:17.859Z,93.07
2018-01-26T01:25:20.326Z,93.30
2018-01-26T01:26:22.800Z,93.26
2018-01-26T01:27:25.263Z,92.96
2018-01-26T01:28:27.747Z,92.97
2018-01-26T01:29:30.228Z,92.96
2018-01-26T01:30:32.704Z,93.23
2018-01-26T01:31:35.166Z,93.53
2018-01-26T01:32:37.631Z,93.50
2018-01-26T01:33:40.096Z,93.30
2018-01-26T01:34:42.581Z,93.24
2018-01-26T01:35:45.046Z,93.44
2018-01-26T01:36:47.511Z,93.50
2018-01-26T01:37:50.206Z,93.38
2018-01-26T01:38:52.671Z,93.73
2018-01-26T01:39:55.153Z,94.03
2018-01-26T01:40:57.614Z,93.81
2018-01-26T01:42:00.079Z,93.82
2018-01-26T01:43:02.558Z,93.99
2018-01-26T01:44:05.019Z,94.03
2018-01-26T01:45:07.483Z,93.84
2018-01-26T01:46:09.951Z,93.49
2018-01-26T01:47:12.429Z,93.70
2018-01-26T01:48:15.393Z,93.40
2018-01-26T01:49:17.876Z,93.55
2018-01-26T01:50:20.356Z,93.73
2018-01-26T01:51:22.844Z,94.20
2018-01-26T01:52:25.322Z,94.43
2018-01-26T01:53:27.795Z,94.47
2018-01-26T01:54:30.263Z,94.54
2018-01-26T01:55:32.742Z,94.60
2018-01-26T01:56:35.226Z,94.77
2018-01-26T01:57:37.709Z,94.84
2018-01-26T01:58:40.175Z,94.98
2018-01-26T01:59:42.639Z,95.15
2018-01-26T02:00:45.107Z,94.98
2018-01-26T02:01:47.585Z,94.87
2018-01-26T02:02:50.060Z,94.79
2018-01-26T02:03:52.537Z,94.79
2018-01-26T02:04:55.017Z,94.57
2018-01-26T02:05:57.474Z,94.56
2018-01-26T02:06:59.960Z,94.68
2018-01-26T02:08:02.431Z,94.33
2018-01-26T02:09:04.909Z,94.27
2018-01-26T02:10:07.374Z,94.51
2018-01-26T02:11:09.842Z,94.68
2018-01-26T02:12:12.329Z,94.37
2018-01-26T02:13:14.792Z,93.45
2018-01-26T02:14:17.255Z,93.07
2018-01-26T02:15:19.742Z,93.26
2018-01-26T02:16:22.217Z,93.10
2018-01-26T02:17:24.687Z,93.12
2018-01-26T02:18:27.155Z,93.19
2018-01-26T02:19:29.622Z,93.41
2018-01-26T02:20:32.100Z,93.12
2018-01-26T02:21:34.570Z,93.06
2018-01-26T02:22:37.046Z,93.27
2018-01-26T02:23:39.513Z,93.58
2018-01-26T02:24:41.988Z,93.25
2018-01-26T02:25:44.472Z,93.29
2018-01-26T02:26:46.938Z,93.54
2018-01-26T02:27:49.403Z,93.83
2018-01-26T02:28:51.861Z,93.84
2018-01-26T02:29:54.325Z,93.24
2018-01-26T02:30:56.787Z,92.98
2018-01-26T02:31:59.254Z,92.96
2018-01-26T02:33:01.734Z,92.96
2018-01-26T02:34:04.209Z,92.59
2018-01-26T02:35:06.674Z,92.40
2018-01-26T02:36:09.164Z,92.01
2018-01-26T02:37:11.645Z,91.86
2018-01-26T02:38:14.111Z,92.28
2018-01-26T02:39:16.570Z,92.76
2018-01-26T02:40:19.035Z,92.93
2018-01-26T02:41:21.503Z,93.36
2018-01-26T02:42:23.976Z,93.03
2018-01-26T02:43:26.443Z,92.98
2018-01-26T02:44:28.911Z,93.18
2018-01-26T02:45:31.380Z,93.40
2018-01-26T02:46:33.847Z,93.82
2018-01-26T02:47:36.310Z,93.97
2018-01-26T02:48:38.788Z,93.83
2018-01-26T02:49:41.277Z,93.94
2018-01-26T02:50:43.747Z,94.11
2018-01-26T02:51:46.211Z,94.32
2018-01-26T02:52:48.692Z,94.40
2018-01-26T02:53:51.170Z,94.58
2018-01-26T02:54:53.657Z,94.42
2018-01-26T02:55:56.119Z,94.12
2018-01-26T02:56:58.586Z,94.05
2018-01-26T02:58:01.051Z,94.16
2018-01-26T02:59:03.515Z,94.33
2018-01-26T03:00:06.002Z,93.94
2018-01-26T03:01:08.504Z,93.98
2018-01-26T03:02:11.011Z,94.03
2018-01-26T03:03:13.483Z,93.93
2018-01-26T03:04:15.947Z,93.97
2018-01-26T03:05:18.470Z,94.14
2018-01-26T03:06:21.004Z,94.17
2018-01-26T03:07:23.513Z,93.94
2018-01-26T03:08:25.982Z,93.69
2018-01-26T03:09:28.472Z,93.71
2018-01-26T03:10:30.945Z,93.44
2018-01-26T03:11:33.425Z,91.50
2018-01-26T03:12:35.888Z,91.14
2018-01-26T03:13:38.373Z,91.58
2018-01-26T03:14:40.835Z,91.80
2018-01-26T03:15:43.297Z,92.06
2018-01-26T03:16:45.773Z,92.21
2018-01-26T03:17:48.242Z,92.49
2018-01-26T03:18:50.717Z,92.96
2018-01-26T03:19:53.196Z,92.88
2018-01-26T03:20:55.666Z,92.90
2018-01-26T03:21:58.164Z,92.75
2018-01-26T03:23:00.634Z,92.56
2018-01-26T03:24:03.122Z,92.07
2018-01-26T03:25:05.604Z,91.72
2018-01-26T03:26:08.066Z,91.71
2018-01-26T03:27:10.544Z,91.50
2018-01-26T03:28:13.033Z,91.80
2018-01-26T03:29:15.498Z,91.75
2018-01-26T03:30:17.990Z,91.75
2018-01-26T03:31:20.465Z,91.74
2018-01-26T03:32:22.934Z,91.96
2018-01-26T03:33:25.399Z,92.16
2018-01-26T03:34:27.867Z,92.22
2018-01-26T03:35:30.339Z,92.53
2018-01-26T03:36:32.802Z,92.66
2018-01-26T03:37:35.280Z,92.92
2018-01-26T03:38:37.760Z,92.93
2018-01-26T03:39:40.222Z,92.72
2018-01-26T03:40:42.696Z,92.70
2018-01-26T03:41:45.158Z,92.86
2018-01-26T03:42:47.634Z,92.72
2018-01-26T03:43:50.102Z,92.28
2018-01-26T03:44:52.571Z,92.29
2018-01-26T03:45:55.034Z,92.39
2018-01-26T03:46:57.498Z,92.50
2018-01-26T03:47:59.962Z,92.21
2018-01-26T03:49:02.449Z,92.04
2018-01-26T03:50:04.911Z,92.27
2018-01-26T03:51:07.379Z,91.80
2018-01-26T03:52:10.101Z,91.26
2018-01-26T03:53:13.311Z,91.41
2018-01-26T03:54:15.789Z,91.80
2018-01-26T03:55:18.304Z,92.44
2018-01-26T03:56:20.786Z,92.93
2018-01-26T03:57:23.255Z,93.37
2018-01-26T03:58:25.760Z,93.15
2018-01-26T03:59:28.241Z,92.93
2018-01-26T04:00:30.719Z,93.09
2018-01-26T04:01:33.186Z,93.16
2018-01-26T04:02:35.665Z,93.03
2018-01-26T04:03:38.150Z,92.26
2018-01-26T04:04:40.626Z,91.99
2018-01-26T04:05:43.105Z,91.95
2018-01-26T04:06:45.571Z,91.89
2018-01-26T04:07:48.053Z,91.98
2018-01-26T04:08:50.539Z,92.29
2018-01-26T04:09:53.002Z,92.76
2018-01-26T04:10:55.466Z,92.96
2018-01-26T04:11:57.949Z,92.92
2018-01-26T04:13:00.435Z,92.87
2018-01-26T04:14:02.915Z,92.98
2018-01-26T04:15:05.397Z,93.06
2018-01-26T04:16:07.880Z,93.35
2018-01-26T04:17:10.357Z,93.83
2018-01-26T04:18:12.837Z,94.30
2018-01-26T04:19:15.322Z,94.67
2018-01-26T04:20:17.786Z,95.04
2018-01-26T04:21:20.262Z,95.17
2018-01-26T04:22:22.744Z,95.02
2018-01-26T04:23:25.210Z,94.58
2018-01-26T04:24:27.712Z,94.16
2018-01-26T04:25:30.194Z,93.52
2018-01-26T04:26:32.661Z,93.49
2018-01-26T04:27:35.145Z,93.35
2018-01-26T04:28:37.629Z,93.25
2018-01-26T04:29:40.106Z,93.31
2018-01-26T04:30:42.591Z,93.64
2018-01-26T04:31:45.069Z,93.63
2018-01-26T04:32:47.568Z,93.72
2018-01-26T04:33:50.040Z,93.92
2018-01-26T04:34:52.512Z,94.36
2018-01-26T04:35:54.979Z,94.65
2018-01-26T04:36:57.456Z,94.72
2018-01-26T04:37:59.937Z,94.57
2018-01-26T04:39:02.403Z,94.42
2018-01-26T04:40:04.928Z,94.42
2018-01-26T04:41:07.424Z,94.26
2018-01-26T04:42:09.899Z,94.38
2018-01-26T04:43:12.366Z,94.40
2018-01-26T04:44:14.850Z,94.52
2018-01-26T04:45:17.314Z,94.63
2018-01-26T04:46:19.775Z,94.67
2018-01-26T04:47:22.277Z,94.77
2018-01-26T04:48:24.738Z,94.95
2018-01-26T04:49:27.213Z,95.13
2018-01-26T04:50:29.702Z,95.34
2018-01-26T04:51:32.181Z,95.76
2018-01-26T04:52:34.660Z,95.85
2018-01-26T04:53:37.140Z,95.91
2018-01-26T04:54:39.632Z,96.11
2018-01-26T04:55:42.116Z,96.34
2018-01-26T04:56:44.587Z,96.45
2018-01-26T04:57:47.082Z,96.13
2018-01-26T04:58:49.547Z,95.83
2018-01-26T04:59:52.124Z,95.84
2018-01-26T05:00:54.678Z,95.79
2018-01-26T05:01:57.150Z,95.43
2018-01-26T05:02:59.652Z,95.36
2018-01-26T05:04:02.146Z,95.25
2018-01-26T05:05:04.628Z,95.32
2018-01-26T05:06:07.095Z,95.57
2018-01-26T05:07:09.581Z,95.83
2018-01-26T05:08:12.058Z,95.93
2018-01-26T05:09:14.536Z,96.08
2018-01-26T05:10:17.012Z,96.24
2018-01-26T05:11:19.496Z,96.40
2018-01-26T05:12:21.976Z,96.47
2018-01-26T05:13:24.452Z,96.20
2018-01-26T05:14:26.933Z,95.93
2018-01-26T05:15:29.453Z,95.30
2018-01-26T05:16:31.936Z,95.14
2018-01-26T05:17:34.425Z,95.01
2018-01-26T05:18:36.914Z,95.12
2018-01-26T05:19:39.378Z,95.36
2018-01-26T05:20:41.873Z,95.50
2018-01-26T05:21:44.347Z,95.61
2018-01-26T05:22:46.829Z,94.40
2018-01-26T05:23:49.318Z,93.60
2018-01-26T05:24:51.798Z,93.84
2018-01-26T05:25:54.294Z,94.24
2018-01-26T05:26:56.768Z,94.33
2018-01-26T05:27:59.244Z,94.51
2018-01-26T05:29:01.757Z,94.59
2018-01-26T05:30:04.198Z,94.64
2018-01-26T05:31:06.770Z,94.47
2018-01-26T05:32:09.237Z,94.22
2018-01-26T05:33:11.703Z,93.99
2018-01-26T05:34:14.246Z,93.64
2018-01-26T05:35:16.806Z,93.79
2018-01-26T05:36:19.266Z,94.10
2018-01-26T05:37:21.748Z,94.28
2018-01-26T05:38:24.234Z,93.94
2018-01-26T05:39:26.703Z,93.60
2018-01-26T05:40:29.184Z,93.81
2018-01-26T05:41:31.669Z,93.93
2018-01-26T05:42:34.148Z,94.02
2018-01-26T05:43:36.620Z,94.22
2018-01-26T05:44:39.088Z,94.17
2018-01-26T05:45:41.572Z,94.20
2018-01-26T05:46:44.043Z,94.09
2018-01-26T05:47:46.524Z,93.66
2018-01-26T05:48:48.990Z,93.38
2018-01-26T05:49:51.503Z,93.20
2018-01-26T05:50:53.978Z,93.22
2018-01-26T05:51:56.466Z,93.46
2018-01-26T05:52:58.935Z,93.73
2018-01-26T05:54:01.412Z,93.97
2018-01-26T05:55:03.908Z,93.87
2018-01-26T05:56:06.408Z,93.99
2018-01-26T05:57:08.889Z,93.51
2018-01-26T05:58:11.354Z,93.47
2018-01-26T05:59:13.828Z,93.67
2018-01-26T06:00:16.308Z,93.18
2018-01-26T06:01:18.775Z,93.02
2018-01-26T06:02:21.274Z,93.09
2018-01-26T06:03:23.742Z,93.44
2018-01-26T06:04:26.207Z,93.66
2018-01-26T06:05:28.689Z,93.50
2018-01-26T06:06:31.168Z,93.67
2018-01-26T06:07:33.626Z,94.05
2018-01-26T06:08:36.104Z,94.17
2018-01-26T06:09:38.580Z,93.97
2018-01-26T06:10:41.046Z,93.09
2018-01-26T06:11:43.524Z,93.09
2018-01-26T06:12:46.100Z,93.28
2018-01-26T06:13:48.760Z,93.36
2018-01-26T06:14:51.232Z,93.40
2018-01-26T06:15:53.716Z,93.39
2018-01-26T06:16:56.192Z,93.17
2018-01-26T06:17:58.664Z,93.35
2018-01-26T06:19:01.130Z,93.45
2018-01-26T06:20:03.606Z,93.63
2018-01-26T06:21:06.090Z,93.81
2018-01-26T06:22:08.554Z,93.88
2018-01-26T06:23:11.018Z,93.59
2018-01-26T06:24:13.483Z,93.20
2018-01-26T06:25:15.946Z,92.53
2018-01-26T06:26:18.424Z,91.86
2018-01-26T06:27:20.933Z,91.93
2018-01-26T06:28:23.400Z,92.46
2018-01-26T06:29:25.886Z,92.67
2018-01-26T06:30:28.346Z,92.93
2018-01-26T06:31:30.950Z,92.97
2018-01-26T06:32:33.425Z,93.09
2018-01-26T06:33:35.971Z,93.03
2018-01-26T06:34:38.434Z,92.95
2018-01-26T06:35:40.909Z,93.21
2018-01-26T06:36:43.366Z,93.51
2018-01-26T06:37:45.831Z,93.79
2018-01-26T06:38:48.290Z,94.24
2018-01-26T06:39:50.762Z,94.47
2018-01-26T06:40:53.277Z,94.62
2018-01-26T06:41:55.744Z,94.74
2018-01-26T06:42:58.229Z,94.85
2018-01-26T06:44:00.690Z,94.87
2018-01-26T06:45:03.169Z,94.79
2018-01-26T06:46:05.666Z,94.72
2018-01-26T06:47:23.219Z,93.75
2018-01-26T06:48:25.840Z,93.24
2018-01-26T06:49:28.324Z,93.31
2018-01-26T06:50:30.825Z,93.00
2018-01-26T06:51:33.381Z,92.96
2018-01-26T06:52:35.874Z,92.93
2018-01-26T06:53:38.363Z,92.81
2018-01-26T06:54:41.055Z,92.84
2018-01-26T06:55:43.532Z,92.44
2018-01-26T06:56:45.998Z,91.83
2018-01-26T06:57:48.544Z,92.12
2018-01-26T06:58:51.009Z,92.39
2018-01-26T06:59:53.484Z,92.69
2018-01-26T07:00:55.971Z,93.22
2018-01-26T07:01:58.434Z,93.45
2018-01-26T07:03:00.909Z,93.67
2018-01-26T07:04:03.389Z,93.83
2018-01-26T07:05:05.891Z,94.06
2018-01-26T07:06:08.441Z,94.27
2018-01-26T07:07:10.916Z,93.99
2018-01-26T07:08:13.396Z,93.81
2018-01-26T07:09:15.868Z,93.28
2018-01-26T07:10:18.374Z,93.25
2018-01-26T07:11:20.875Z,93.45
2018-01-26T07:12:23.330Z,93.79
2018-01-26T07:13:25.808Z,94.17
2018-01-26T07:14:28.289Z,94.11
2018-01-26T07:15:30.763Z,94.26
2018-01-26T07:16:33.277Z,94.47
2018-01-26T07:17:35.762Z,94.30
2018-01-26T07:18:38.260Z,94.21
2018-01-26T07:19:40.799Z,94.22
2018-01-26T07:20:43.285Z,93.84
2018-01-26T07:21:45.779Z,93.78
2018-01-26T07:22:48.265Z,93.83
2018-01-26T07:23:50.754Z,93.15
2018-01-26T07:24:53.228Z,92.72
2018-01-26T07:25:55.718Z,92.29
2018-01-26T07:26:58.206Z,91.94
2018-01-26T07:28:00.685Z,92.08
2018-01-26T07:29:03.227Z,92.02
2018-01-26T07:30:05.699Z,92.54
2018-01-26T07:31:08.449Z,92.47
2018-01-26T07:32:10.930Z,92.11
2018-01-26T07:33:13.437Z,91.88
2018-01-26T07:34:16.018Z,92.02
2018-01-26T07:35:18.496Z,92.64
2018-01-26T07:36:20.967Z,92.63
2018-01-26T07:37:23.470Z,92.37
2018-01-26T07:38:25.953Z,92.65
2018-01-26T07:39:28.504Z,92.89
2018-01-26T07:40:30.994Z,93.20
2018-01-26T07:41:33.463Z,93.22
2018-01-26T07:42:35.931Z,93.34
2018-01-26T07:43:38.413Z,93.65
2018-01-26T07:44:40.883Z,93.91
2018-01-26T07:45:43.345Z,93.59
2018-01-26T07:46:45.820Z,93.20
2018-01-26T07:47:48.297Z,93.02
2018-01-26T07:48:50.756Z,92.88
2018-01-26T07:49:53.236Z,92.38
2018-01-26T07:50:55.712Z,92.28
2018-01-26T07:51:58.193Z,92.20
2018-01-26T07:53:00.659Z,92.17
2018-01-26T07:54:03.136Z,92.22
2018-01-26T07:55:05.603Z,92.49
2018-01-26T07:56:08.085Z,92.88
2018-01-26T07:57:10.559Z,92.96
2018-01-26T07:58:13.040Z,92.84
2018-01-26T07:59:15.532Z,93.07
2018-01-26T08:00:18.023Z,93.08
2018-01-26T08:01:20.580Z,92.97
2018-01-26T08:02:23.043Z,92.71
2018-01-26T08:03:25.578Z,92.61
2018-01-26T08:04:28.058Z,92.72
2018-01-26T08:05:30.584Z,92.76
2018-01-26T08:06:33.038Z,92.24
2018-01-26T08:07:35.516Z,91.95
2018-01-26T08:08:37.996Z,91.99
2018-01-26T08:09:40.475Z,92.13
2018-01-26T08:10:42.938Z,92.22
2018-01-26T08:11:45.513Z,92.20
2018-01-26T08:12:47.980Z,92.20
2018-01-26T08:13:50.466Z,91.96
2018-01-26T08:14:53.021Z,91.06
2018-01-26T08:15:55.498Z,90.89
2018-01-26T08:16:57.981Z,90.92
2018-01-26T08:18:00.462Z,91.11
2018-01-26T08:19:02.938Z,90.22
2018-01-26T08:20:05.400Z,88.91
2018-01-26T08:21:07.922Z,88.38
2018-01-26T08:22:10.385Z,88.51
2018-01-26T08:23:12.849Z,88.21
2018-01-26T08:24:15.328Z,88.30
2018-01-26T08:25:17.794Z,88.24
2018-01-26T08:26:20.257Z,87.62
2018-01-26T08:27:22.739Z,87.80
2018-01-26T08:28:25.199Z,87.84
2018-01-26T08:29:27.670Z,87.80
2018-01-26T08:30:30.152Z,87.66
2018-01-26T08:31:32.637Z,87.82
2018-01-26T08:32:35.115Z,87.66
2018-01-26T08:33:37.589Z,87.38
2018-01-26T08:34:40.077Z,87.67
2018-01-26T08:35:42.552Z,87.56
2018-01-26T08:36:45.029Z,87.25
2018-01-26T08:37:47.496Z,87.53
2018-01-26T08:38:49.972Z,88.11
2018-01-26T08:39:52.448Z,87.61
2018-01-26T08:40:54.932Z,87.22
2018-01-26T08:41:57.445Z,87.21
2018-01-26T08:42:59.914Z,87.22
2018-01-26T08:44:02.391Z,87.45
2018-01-26T08:45:04.878Z,88.00
2018-01-26T08:46:07.385Z,88.29
2018-01-26T08:47:09.865Z,88.17
2018-01-26T08:48:12.359Z,88.20
2018-01-26T08:49:14.837Z,87.39
2018-01-26T08:50:17.324Z,86.76
2018-01-26T08:51:19.791Z,86.31
2018-01-26T08:52:22.268Z,86.23
2018-01-26T08:53:24.748Z,86.14
2018-01-26T08:54:27.256Z,86.21
2018-01-26T08:55:29.733Z,86.15
2018-01-26T08:56:32.206Z,86.00
2018-01-26T08:57:34.687Z,85.75
2018-01-26T08:58:37.151Z,84.76
2018-01-26T08:59:39.633Z,83.68
2018-01-26T09:00:42.100Z,83.22
2018-01-26T09:01:44.570Z,82.28
2018-01-26T09:02:47.065Z,82.00
2018-01-26T09:03:49.545Z,81.63
2018-01-26T09:04:52.014Z,81.23
2018-01-26T09:05:54.497Z,80.48
2018-01-26T09:06:57.007Z,80.34
2018-01-26T09:07:59.484Z,80.13
2018-01-26T09:09:02.013Z,79.70
2018-01-26T09:10:04.489Z,80.55
2018-01-26T09:11:07.007Z,80.73
2018-01-26T09:12:09.484Z,81.84
2018-01-26T09:13:11.962Z,81.24
2018-01-26T09:14:14.432Z,81.03
2018-01-26T09:15:16.890Z,80.17
2018-01-26T09:16:19.347Z,80.58
2018-01-26T09:17:21.820Z,81.13
2018-01-26T09:18:24.274Z,81.64
2018-01-26T09:19:26.757Z,82.00
2018-01-26T09:20:29.236Z,82.10
2018-01-26T09:21:31.709Z,82.34
2018-01-26T09:22:34.193Z,82.21
2018-01-26T09:23:36.666Z,82.51
2018-01-26T09:24:39.130Z,83.14
2018-01-26T09:25:41.598Z,83.25
2018-01-26T09:26:44.092Z,82.77
2018-01-26T09:27:46.550Z,82.41
2018-01-26T09:28:49.011Z,82.49
2018-01-26T09:29:51.466Z,82.50
2018-01-26T09:30:53.930Z,82.65
2018-01-26T09:31:56.437Z,82.32
2018-01-26T09:32:58.909Z,81.95
2018-01-26T09:34:01.407Z,82.18
2018-01-26T09:35:03.883Z,82.26
2018-01-26T09:36:06.357Z,83.09
2018-01-26T09:37:08.839Z,82.25
2018-01-26T09:38:11.300Z,81.44
2018-01-26T09:39:13.781Z,81.49
2018-01-26T09:40:16.246Z,81.58
2018-01-26T09:41:18.714Z,82.06
2018-01-26T09:42:21.205Z,81.86
2018-01-26T09:43:23.681Z,81.91
2018-01-26T09:44:26.153Z,82.03
2018-01-26T09:45:28.651Z,81.94
2018-01-26T09:46:31.114Z,82.01
2018-01-26T09:47:33.613Z,82.74
2018-01-26T09:48:36.070Z,82.90
2018-01-26T09:49:38.555Z,83.31
2018-01-26T09:50:41.029Z,83.21
2018-01-26T09:51:43.513Z,83.12
2018-01-26T09:52:45.991Z,83.81
2018-01-26T09:53:48.454Z,84.13
2018-01-26T09:54:50.973Z,84.15
2018-01-26T09:55:53.448Z,84.17
2018-01-26T09:56:55.919Z,85.61
2018-01-26T09:57:58.419Z,85.51
2018-01-26T09:59:00.940Z,85.23
2018-01-26T10:00:03.427Z,85.25
2018-01-26T10:01:05.929Z,85.05
2018-01-26T10:02:08.417Z,84.87
2018-01-26T10:03:10.906Z,85.24
2018-01-26T10:04:13.387Z,85.28
2018-01-26T10:05:15.873Z,84.97
2018-01-26T10:06:18.419Z,84.89
2018-01-26T10:07:20.883Z,84.82
2018-01-26T10:08:23.361Z,84.53
2018-01-26T10:09:25.838Z,84.01
2018-01-26T10:10:28.321Z,83.78
2018-01-26T10:11:30.787Z,83.18
2018-01-26T10:12:33.250Z,83.32
2018-01-26T10:13:35.738Z,83.47
2018-01-26T10:14:38.208Z,83.10
2018-01-26T10:15:40.695Z,82.42
2018-01-26T10:16:43.177Z,82.17
2018-01-26T10:17:45.657Z,82.63
2018-01-26T10:18:48.219Z,82.40
2018-01-26T10:19:50.682Z,82.15
2018-01-26T10:20:53.153Z,83.04
2018-01-26T10:21:55.630Z,82.78
2018-01-26T10:22:58.100Z,82.96
2018-01-26T10:24:00.617Z,83.04
2018-01-26T10:25:03.074Z,82.73
2018-01-26T10:26:05.536Z,81.96
2018-01-26T10:27:07.994Z,81.51
2018-01-26T10:28:10.472Z,82.47
2018-01-26T10:29:13.057Z,82.37
2018-01-26T10:30:15.514Z,83.18
2018-01-26T10:31:17.993Z,83.05
2018-01-26T10:32:20.455Z,83.02
2018-01-26T10:33:22.926Z,82.23
2018-01-26T10:34:25.415Z,81.96
2018-01-26T10:35:28.052Z,81.88
2018-01-26T10:36:30.525Z,81.83
2018-01-26T10:37:32.987Z,81.70
2018-01-26T10:38:36.334Z,81.71
2018-01-26T10:39:38.815Z,81.18
2018-01-26T10:40:41.289Z,82.22
2018-01-26T10:41:44.246Z,82.08
2018-01-26T10:42:46.756Z,81.74
2018-01-26T10:43:49.223Z,81.87
2018-01-26T10:44:51.709Z,82.55
2018-01-26T10:45:54.189Z,82.25
2018-01-26T10:46:56.700Z,82.60
2018-01-26T10:47:59.162Z,81.76
2018-01-26T10:49:01.652Z,81.88
2018-01-26T10:50:04.166Z,81.23
2018-01-26T10:51:06.651Z,81.65
2018-01-26T10:52:09.138Z,80.98
2018-01-26T10:53:11.635Z,81.25
2018-01-26T10:54:14.150Z,80.78
2018-01-26T10:55:16.690Z,80.07
2018-01-26T10:56:19.210Z,80.14
2018-01-26T10:57:21.750Z,80.63
2018-01-26T10:58:24.259Z,80.73
2018-01-26T10:59:26.727Z,80.36
2018-01-26T11:00:29.218Z,80.20
2018-01-26T11:01:31.691Z,81.35
2018-01-26T11:02:34.158Z,81.82
2018-01-26T11:03:36.627Z,82.03
2018-01-26T11:04:39.101Z,82.11
2018-01-26T11:05:41.728Z,81.46
2018-01-26T11:06:44.205Z,81.84
2018-01-26T11:07:46.670Z,80.22
2018-01-26T11:08:49.146Z,80.55
2018-01-26T11:09:51.633Z,81.36
2018-01-26T11:10:54.129Z,82.48
2018-01-26T11:11:56.599Z,82.62
2018-01-26T11:12:59.073Z,82.81
2018-01-26T11:14:01.530Z,82.33
2018-01-26T11:15:04.009Z,82.25
2018-01-26T11:16:06.503Z,82.04
2018-01-26T11:17:08.981Z,82.31
2018-01-26T11:18:11.463Z,81.71
2018-01-26T11:19:14.071Z,81.06
2018-01-26T11:20:16.545Z,81.07
2018-01-26T11:21:19.036Z,81.33
2018-01-26T11:22:21.502Z,81.25
2018-01-26T11:23:24.894Z,81.36
2018-01-26T11:24:27.454Z,79.35
2018-01-26T11:25:29.926Z,79.36
2018-01-26T11:26:32.444Z,79.26
2018-01-26T11:27:34.888Z,80.32
2018-01-26T11:28:37.369Z,80.82
2018-01-26T11:29:39.827Z,79.91
2018-01-26T11:30:42.302Z,78.34
2018-01-26T11:31:44.785Z,77.85
2018-01-26T11:32:47.269Z,77.45
2018-01-26T11:33:49.748Z,77.70
2018-01-26T11:34:52.210Z,77.03
2018-01-26T11:35:54.674Z,77.57
2018-01-26T11:36:57.143Z,77.29
2018-01-26T11:37:59.641Z,79.10
2018-01-26T11:39:02.111Z,78.63
2018-01-26T11:40:04.574Z,79.27
2018-01-26T11:41:07.048Z,76.87
2018-01-26T11:42:09.510Z,77.74
2018-01-26T11:43:11.993Z,75.67
2018-01-26T11:44:14.482Z,72.42
2018-01-26T11:45:16.985Z,70.85
2018-01-26T11:46:19.469Z,71.16
2018-01-26T11:47:21.938Z,72.64
2018-01-26T11:48:24.492Z,71.09
2018-01-26T11:49:26.954Z,71.55
2018-01-26T11:50:29.428Z,71.08
2018-01-26T11:51:31.928Z,70.91
2018-01-26T11:52:34.398Z,70.27
2018-01-26T11:53:36.863Z,71.62
2018-01-26T11:54:39.337Z,70.60
2018-01-26T11:55:41.814Z,69.61
2018-01-26T11:56:44.278Z,69.50
2018-01-26T11:57:46.756Z,69.95
2018-01-26T11:58:49.214Z,71.13
2018-01-26T11:59:51.690Z,72.18
2018-01-26T12:00:54.155Z,71.26
2018-01-26T12:01:56.647Z,72.79
2018-01-26T12:02:59.121Z,73.18
2018-01-26T12:04:01.594Z,72.83
2018-01-26T12:05:04.072Z,70.67
2018-01-26T12:06:06.553Z,70.25
2018-01-26T12:07:09.054Z,69.70
2018-01-26T12:08:11.519Z,69.61
2018-01-26T12:09:13.990Z,69.53
2018-01-26T12:10:16.456Z,69.42
2018-01-26T12:11:18.946Z,67.50
2018-01-26T12:12:21.411Z,67.70
2018-01-26T12:13:23.891Z,70.14
2018-01-26T12:14:26.378Z,69.47
2018-01-26T12:15:28.905Z,69.17
2018-01-26T12:16:31.371Z,70.21
2018-01-26T12:17:33.839Z,70.80
2018-01-26T12:18:36.331Z,70.81
2018-01-26T12:19:38.808Z,71.21
2018-01-26T12:20:41.276Z,73.60
2018-01-26T12:21:43.738Z,73.94
2018-01-26T12:22:46.194Z,73.01
2018-01-26T12:23:48.697Z,71.39
2018-01-26T12:24:51.170Z,71.74
2018-01-26T12:25:53.645Z,72.07
2018-01-26T12:26:56.111Z,70.38
2018-01-26T12:27:58.582Z,71.27
2018-01-26T12:29:01.047Z,69.51
2018-01-26T12:30:03.545Z,70.37
2018-01-26T12:31:06.021Z,70.01
2018-01-26T12:32:08.623Z,69.51
2018-01-26T12:33:11.140Z,67.56
2018-01-26T12:34:13.601Z,65.29
2018-01-26T12:35:16.067Z,66.85
2018-01-26T12:36:18.539Z,64.64
2018-01-26T12:37:21.002Z,64.06
2018-01-26T12:38:23.482Z,63.26
2018-01-26T12:39:25.979Z,64.72
2018-01-26T12:40:28.457Z,63.90
2018-01-26T12:41:30.922Z,61.99
2018-01-26T12:42:33.404Z,65.38
2018-01-26T12:43:35.885Z,63.53
2018-01-26T12:44:38.373Z,66.56
2018-01-26T12:45:40.856Z,68.10
2018-01-26T12:46:43.338Z,68.71
2018-01-26T12:47:45.819Z,68.45
2018-01-26T12:48:48.282Z,66.70
2018-01-26T12:49:50.747Z,65.75
2018-01-26T12:50:53.210Z,65.38
2018-01-26T12:51:55.692Z,64.29
2018-01-26T12:52:58.154Z,64.12
2018-01-26T12:54:00.636Z,65.30
2018-01-26T12:55:03.117Z,65.50
2018-01-26T12:56:05.601Z,66.02
2018-01-26T12:57:08.073Z,67.93
2018-01-26T12:58:10.553Z,69.30
2018-01-26T12:59:13.019Z,69.79
2018-01-26T13:00:15.542Z,70.14
2018-01-26T13:01:18.062Z,69.02
2018-01-26T13:02:20.547Z,70.29
2018-01-26T13:03:23.011Z,70.07
2018-01-26T13:04:25.507Z,70.87
2018-01-26T13:05:27.988Z,71.31
2018-01-26T13:06:30.463Z,72.25
2018-01-26T13:07:32.927Z,72.08
2018-01-26T13:08:35.409Z,73.05
2018-01-26T13:09:37.875Z,73.34
2018-01-26T13:10:40.347Z,74.51
2018-01-26T13:11:42.829Z,74.75
2018-01-26T13:12:45.365Z,74.94
2018-01-26T13:13:47.877Z,74.68
2018-01-26T13:14:50.344Z,74.53
2018-01-26T13:15:52.857Z,75.79
2018-01-26T13:16:55.336Z,76.17
2018-01-26T13:17:57.852Z,74.94
2018-01-26T13:19:00.330Z,74.72
2018-01-26T13:20:02.822Z,75.59
2018-01-26T13:21:05.306Z,75.38
2018-01-26T13:22:07.785Z,74.84
2018-01-26T13:23:10.265Z,73.27
2018-01-26T13:24:12.731Z,72.55
2018-01-26T13:25:15.195Z,71.37